Terminal Aerodrome Forecast
Issued by NWS Sterling, VA

Current Version | Previous Version | Graphics & Text | Print | Product List | Glossary On
Versions: 1 2 3 4 5 6 7 8 9 10 11 12 13 14 15 16 17 18 19 20 21 22 23 24 25 26
000
FTUS41 KLWX 271445 AAA
TAFIAD
TAF AMD
KIAD 271445Z 2715/2818 VRB03KT 6SM -SHRA BKN050
     FM271600 18004KT P6SM VCSH OVC050
     FM271900 15005KT P6SM VCTS BKN050CB
     FM272300 12004KT P6SM OVC040
     FM280400 04003KT P6SM OVC015
     FM280600 VRB03KT P6SM OVC008
     FM281200 VRB03KT P6SM BKN015
     FM281400 10004KT P6SM BKN025=

USA.gov is the U.S. government's official web portal to all federal, state and local government web resources and services.